createdAt,value
2018-08-18T00:00:25.707Z,4.70
2018-08-18T00:02:54.769Z,3.80
2018-08-18T00:05:23.875Z,3.90
2018-08-18T00:07:52.951Z,4.17
2018-08-18T00:10:23.325Z,3.70
2018-08-18T00:12:52.843Z,3.40
2018-08-18T00:15:21.927Z,4.23
2018-08-18T00:17:51.497Z,4.20
2018-08-18T00:20:23.936Z,3.70
2018-08-18T00:22:53.009Z,3.60
2018-08-18T00:25:22.163Z,3.53
2018-08-18T00:27:51.308Z,3.90
2018-08-18T00:30:25.501Z,4.60
2018-08-18T00:32:55.170Z,4.87
2018-08-18T00:35:24.589Z,4.70
2018-08-18T00:37:53.543Z,4.37
2018-08-18T00:40:22.659Z,4.93
2018-08-18T00:42:51.679Z,4.00
2018-08-18T00:45:20.698Z,6.00
2018-08-18T00:47:50.120Z,4.30
2018-08-18T00:50:34.321Z,4.20
2018-08-18T00:53:03.967Z,3.83
2018-08-18T00:55:33.020Z,4.47
2018-08-18T00:58:02.049Z,4.20
2018-08-18T01:00:31.050Z,3.87
2018-08-18T01:03:00.881Z,4.03
2018-08-18T01:05:30.357Z,3.37
2018-08-18T01:07:59.680Z,3.93
2018-08-18T01:10:29.100Z,3.50
2018-08-18T01:12:58.416Z,4.50
2018-08-18T01:15:28.359Z,4.67
2018-08-18T01:17:58.085Z,4.90
2018-08-18T01:20:27.575Z,4.30
2018-08-18T01:23:01.431Z,4.07
2018-08-18T01:25:30.989Z,5.10
2018-08-18T01:28:01.137Z,4.93
2018-08-18T01:30:30.518Z,4.20
2018-08-18T01:32:59.818Z,3.90
2018-08-18T01:35:29.019Z,4.47
2018-08-18T01:37:58.461Z,4.70
2018-08-18T01:40:27.752Z,3.90
2018-08-18T01:42:57.316Z,4.23
2018-08-18T01:45:26.474Z,4.83
2018-08-18T01:47:56.794Z,4.57
2018-08-18T01:50:26.104Z,4.70
2018-08-18T01:52:55.438Z,4.97
2018-08-18T01:55:26.260Z,4.37
2018-08-18T01:57:55.656Z,4.57
2018-08-18T02:00:28.700Z,4.77
2018-08-18T02:02:58.090Z,5.53
2018-08-18T02:05:28.257Z,4.40
2018-08-18T02:07:57.589Z,6.20
2018-08-18T02:10:26.913Z,4.37
2018-08-18T02:13:03.129Z,4.83
2018-08-18T02:15:33.092Z,5.43
2018-08-18T02:18:02.282Z,4.80
2018-08-18T02:20:31.578Z,4.60
2018-08-18T02:23:00.853Z,3.93
2018-08-18T02:25:30.153Z,4.33
2018-08-18T02:27:59.388Z,4.50
2018-08-18T02:30:28.791Z,5.13
2018-08-18T02:32:57.985Z,4.67
2018-08-18T02:35:27.407Z,4.77
2018-08-18T02:37:56.803Z,4.53
2018-08-18T02:40:26.328Z,5.10
2018-08-18T02:42:55.710Z,5.20
2018-08-18T02:45:25.235Z,4.80
2018-08-18T02:48:09.166Z,5.13
2018-08-18T02:50:40.573Z,4.10
2018-08-18T02:53:21.323Z,5.17
2018-08-18T02:55:50.663Z,5.60
2018-08-18T02:58:21.228Z,4.73
2018-08-18T03:00:50.965Z,5.17
2018-08-18T03:03:20.495Z,5.27
2018-08-18T03:05:50.061Z,4.67
2018-08-18T03:08:19.627Z,5.13
2018-08-18T03:10:48.752Z,5.37
2018-08-18T03:13:17.913Z,5.43
2018-08-18T03:15:53.652Z,5.03
2018-08-18T03:18:33.490Z,4.77
2018-08-18T03:21:03.072Z,5.13
2018-08-18T03:23:33.338Z,4.70
2018-08-18T03:26:02.767Z,5.07
2018-08-18T03:28:37.603Z,3.90
2018-08-18T03:31:07.339Z,4.53
2018-08-18T03:33:36.840Z,5.20
2018-08-18T03:36:20.732Z,4.90
2018-08-18T03:38:50.134Z,5.10
2018-08-18T03:41:19.153Z,4.33
2018-08-18T03:43:48.674Z,4.87
2018-08-18T03:46:17.947Z,4.80
2018-08-18T03:48:47.640Z,5.00
2018-08-18T03:51:16.913Z,5.17
2018-08-18T03:53:46.579Z,4.40
2018-08-18T03:56:15.785Z,4.87
2018-08-18T03:58:52.638Z,6.90
2018-08-18T04:01:56.759Z,4.77
2018-08-18T04:04:28.103Z,4.47
2018-08-18T04:06:58.502Z,5.07
2018-08-18T04:09:29.729Z,5.17
2018-08-18T04:11:59.860Z,4.80
2018-08-18T04:14:49.583Z,7.47
2018-08-18T04:17:29.813Z,4.70
2018-08-18T04:19:58.815Z,4.10
2018-08-18T04:22:28.302Z,4.53
2018-08-18T04:24:57.824Z,4.80
2018-08-18T04:27:38.235Z,5.57
2018-08-18T04:30:12.139Z,5.70
2018-08-18T04:33:04.508Z,4.60
2018-08-18T04:35:34.250Z,5.70
2018-08-18T04:38:04.201Z,6.17
2018-08-18T04:40:35.991Z,5.57
2018-08-18T04:43:05.459Z,5.77
2018-08-18T04:45:35.125Z,5.50
2018-08-18T04:48:04.503Z,6.20
2018-08-18T04:50:34.058Z,5.53
2018-08-18T04:53:03.539Z,5.80
2018-08-18T04:55:32.955Z,4.93
2018-08-18T04:58:02.325Z,5.10
2018-08-18T05:00:31.695Z,5.57
2018-08-18T05:03:01.305Z,6.20
2018-08-18T05:05:31.746Z,5.83
2018-08-18T05:08:03.347Z,6.37
2018-08-18T05:10:32.958Z,6.30
2018-08-18T05:13:02.356Z,5.40
2018-08-18T05:15:31.777Z,6.97
2018-08-18T05:18:01.256Z,6.80
2018-08-18T05:20:30.728Z,7.10
2018-08-18T05:23:20.785Z,7.50
2018-08-18T05:25:51.912Z,6.40
2018-08-18T05:28:21.474Z,6.50
2018-08-18T05:30:52.952Z,6.00
2018-08-18T05:33:21.965Z,5.80
2018-08-18T05:35:51.191Z,5.00
2018-08-18T05:38:20.447Z,5.63
2018-08-18T05:40:49.555Z,5.57
2018-08-18T05:43:19.067Z,7.20
2018-08-18T05:45:48.378Z,5.30
2018-08-18T05:48:17.680Z,5.47
2018-08-18T05:50:47.129Z,5.27
2018-08-18T05:53:19.143Z,5.33
2018-08-18T05:55:48.901Z,5.90
2018-08-18T05:58:17.943Z,5.90
2018-08-18T06:00:47.263Z,6.50
2018-08-18T06:03:19.384Z,6.20
2018-08-18T06:05:49.687Z,6.50
2018-08-18T06:08:19.519Z,5.00
2018-08-18T06:10:48.680Z,5.27
2018-08-18T06:13:21.244Z,5.83
2018-08-18T06:16:06.055Z,5.97
2018-08-18T06:18:39.385Z,5.17
2018-08-18T06:21:09.159Z,6.93
2018-08-18T06:23:39.388Z,6.63
2018-08-18T06:26:09.244Z,6.40
2018-08-18T06:28:38.741Z,6.30
2018-08-18T06:31:08.197Z,5.90
2018-08-18T06:33:37.528Z,6.23
2018-08-18T06:36:07.036Z,6.73
2018-08-18T06:38:36.732Z,7.13
2018-08-18T06:41:06.366Z,6.77
2018-08-18T06:43:35.919Z,6.23
2018-08-18T06:46:05.335Z,6.50
2018-08-18T06:48:36.136Z,7.47
2018-08-18T06:51:05.544Z,6.80
2018-08-18T06:53:40.046Z,5.73
2018-08-18T06:56:09.757Z,6.00
2018-08-18T06:58:39.127Z,7.20
2018-08-18T07:01:10.060Z,5.63
2018-08-18T07:03:43.463Z,7.60
2018-08-18T07:06:15.129Z,5.80
2018-08-18T07:08:50.576Z,6.53
2018-08-18T07:11:21.985Z,6.23
2018-08-18T07:13:51.312Z,6.60
2018-08-18T07:16:21.589Z,6.00
2018-08-18T07:18:51.496Z,7.67
2018-08-18T07:21:21.184Z,6.83
2018-08-18T07:23:50.932Z,5.60
2018-08-18T07:26:20.278Z,6.27
2018-08-18T07:28:52.521Z,6.30
2018-08-18T07:31:21.861Z,6.50
2018-08-18T07:33:51.601Z,6.10
2018-08-18T07:36:20.929Z,5.70
2018-08-18T07:38:50.290Z,5.47
2018-08-18T07:41:20.344Z,5.83
2018-08-18T07:43:50.827Z,5.50
2018-08-18T07:46:22.440Z,5.80
2018-08-18T07:48:51.600Z,5.80
2018-08-18T07:51:20.724Z,5.10
2018-08-18T07:53:49.836Z,5.70
2018-08-18T07:56:19.780Z,5.50
2018-08-18T07:58:48.817Z,4.93
2018-08-18T08:01:18.479Z,4.60
2018-08-18T08:03:48.851Z,4.97
2018-08-18T08:06:19.138Z,5.27
2018-08-18T08:08:53.326Z,5.23
2018-08-18T08:11:24.189Z,4.60
2018-08-18T08:13:53.660Z,4.93
2018-08-18T08:16:23.047Z,5.83
2018-08-18T08:18:52.592Z,5.03
2018-08-18T08:21:23.098Z,4.90
2018-08-18T08:23:53.464Z,5.43
2018-08-18T08:26:22.901Z,5.43
2018-08-18T08:28:52.265Z,4.77
2018-08-18T08:31:21.593Z,4.40
2018-08-18T08:33:50.854Z,4.63
2018-08-18T08:36:21.876Z,4.73
2018-08-18T08:38:58.808Z,4.97
2018-08-18T08:41:29.744Z,4.33
2018-08-18T08:44:00.154Z,5.00
2018-08-18T08:46:30.549Z,4.70
2018-08-18T08:49:02.025Z,4.73
2018-08-18T08:51:31.347Z,4.53
2018-08-18T08:54:01.285Z,4.30
2018-08-18T08:56:39.241Z,4.77
2018-08-18T08:59:09.260Z,3.70
2018-08-18T09:01:38.739Z,6.23
2018-08-18T09:04:08.237Z,4.90
2018-08-18T09:06:41.656Z,3.53
2018-08-18T09:09:11.011Z,4.63
2018-08-18T09:11:40.526Z,4.30
2018-08-18T09:14:10.153Z,4.87
2018-08-18T09:16:39.611Z,4.10
2018-08-18T09:19:09.344Z,3.60
2018-08-18T09:21:43.800Z,3.87
2018-08-18T09:24:13.380Z,4.77
2018-08-18T09:26:48.046Z,3.93
2018-08-18T09:29:17.597Z,3.43
2018-08-18T09:31:47.351Z,3.53
2018-08-18T09:34:16.810Z,3.30
2018-08-18T09:36:46.921Z,3.73
2018-08-18T09:39:35.946Z,4.33
2018-08-18T09:42:12.614Z,4.13
2018-08-18T09:44:43.167Z,3.53
2018-08-18T09:47:12.865Z,3.40
2018-08-18T09:49:42.941Z,2.63
2018-08-18T09:52:14.334Z,3.27
2018-08-18T09:54:44.970Z,3.73
2018-08-18T09:57:15.297Z,3.63
2018-08-18T09:59:44.926Z,3.70
2018-08-18T10:02:15.045Z,3.30
2018-08-18T10:04:44.481Z,3.73
2018-08-18T10:07:13.879Z,3.50
2018-08-18T10:09:43.196Z,3.47
2018-08-18T10:12:12.450Z,3.00
2018-08-18T10:14:41.784Z,3.73
2018-08-18T10:17:10.816Z,3.30
2018-08-18T10:19:39.901Z,3.30
2018-08-18T10:22:09.024Z,3.17
2018-08-18T10:24:38.268Z,2.60
2018-08-18T10:27:07.563Z,3.70
2018-08-18T10:29:36.667Z,3.53
2018-08-18T10:32:05.794Z,3.30
2018-08-18T10:34:34.888Z,3.40
2018-08-18T10:37:06.999Z,5.80
2018-08-18T10:39:37.515Z,3.23
2018-08-18T10:42:27.783Z,2.67
2018-08-18T10:45:00.801Z,3.00
2018-08-18T10:47:29.930Z,3.00
2018-08-18T10:50:09.946Z,2.63
2018-08-18T10:52:49.965Z,2.57
2018-08-18T10:55:19.840Z,3.03
2018-08-18T10:57:59.769Z,3.03
2018-08-18T11:00:30.490Z,3.20
2018-08-18T11:03:01.244Z,2.73
2018-08-18T11:05:31.110Z,2.90
2018-08-18T11:08:04.693Z,2.90
2018-08-18T11:10:35.349Z,2.70
2018-08-18T11:13:04.701Z,2.57
2018-08-18T11:15:33.791Z,3.43
2018-08-18T11:18:03.023Z,2.43
2018-08-18T11:20:33.562Z,2.30
2018-08-18T11:23:08.770Z,2.67
2018-08-18T11:25:40.254Z,2.50
2018-08-18T11:28:10.315Z,2.60
2018-08-18T11:30:39.502Z,3.00
2018-08-18T11:33:08.618Z,2.80
2018-08-18T11:35:38.106Z,2.77
2018-08-18T11:38:10.673Z,2.57
2018-08-18T11:40:39.915Z,2.10
2018-08-18T11:43:10.842Z,2.20
2018-08-18T11:45:41.102Z,2.50
2018-08-18T11:48:14.377Z,2.87
2018-08-18T11:50:44.037Z,3.03
2018-08-18T11:53:13.266Z,2.77
2018-08-18T11:55:42.623Z,2.13
2018-08-18T11:58:26.580Z,2.37
2018-08-18T12:01:01.107Z,2.10
2018-08-18T12:03:32.159Z,2.63
2018-08-18T12:06:03.512Z,2.90
2018-08-18T12:08:34.105Z,2.77
2018-08-18T12:11:05.002Z,2.40
2018-08-18T12:13:38.978Z,2.53
2018-08-18T12:16:12.446Z,2.53
2018-08-18T12:18:43.018Z,2.40
2018-08-18T12:21:12.589Z,2.90
2018-08-18T12:23:43.955Z,2.20
2018-08-18T12:26:18.926Z,2.73
2018-08-18T12:28:52.707Z,2.20
2018-08-18T12:31:26.155Z,2.87
2018-08-18T12:33:55.556Z,2.40
2018-08-18T12:36:25.278Z,2.90
2018-08-18T12:38:55.875Z,3.10
2018-08-18T12:41:25.266Z,2.57
2018-08-18T12:43:58.826Z,2.57
2018-08-18T12:46:37.153Z,2.57
2018-08-18T12:49:09.114Z,2.40
2018-08-18T12:51:38.476Z,2.40
2018-08-18T12:54:07.921Z,2.90
2018-08-18T12:56:37.411Z,2.30
2018-08-18T12:59:07.542Z,2.97
2018-08-18T13:01:42.815Z,2.60
2018-08-18T13:04:14.619Z,2.50
2018-08-18T13:06:51.962Z,2.30
2018-08-18T13:09:23.095Z,2.83
2018-08-18T13:11:53.672Z,2.50
2018-08-18T13:14:25.331Z,2.70
2018-08-18T13:16:54.609Z,2.33
2018-08-18T13:19:25.886Z,2.30
2018-08-18T13:21:55.244Z,2.50
2018-08-18T13:24:25.431Z,2.10
2018-08-18T13:26:54.766Z,3.30
2018-08-18T13:29:23.965Z,2.43
2018-08-18T13:31:53.650Z,3.07
2018-08-18T13:34:23.187Z,2.80
2018-08-18T13:36:52.594Z,2.97
2018-08-18T13:39:22.097Z,2.97
2018-08-18T13:41:51.521Z,2.40
2018-08-18T13:44:27.013Z,2.50
2018-08-18T13:46:56.586Z,2.50
2018-08-18T13:49:26.869Z,2.50
2018-08-18T13:51:56.493Z,2.80
2018-08-18T13:54:25.835Z,2.80
2018-08-18T13:56:55.388Z,2.33
2018-08-18T13:59:55.516Z,2.50
2018-08-18T14:02:26.343Z,2.20
2018-08-18T14:04:55.817Z,2.60
2018-08-18T14:07:25.456Z,2.50
2018-08-18T14:10:02.239Z,2.70
2018-08-18T14:12:32.718Z,2.20
2018-08-18T14:15:02.308Z,2.53
2018-08-18T14:17:31.563Z,2.77
2018-08-18T14:20:00.822Z,2.60
2018-08-18T14:22:30.153Z,2.80
2018-08-18T14:24:59.484Z,2.63
2018-08-18T14:27:28.989Z,2.77
2018-08-18T14:29:58.286Z,3.27
2018-08-18T14:32:28.790Z,2.57
2018-08-18T14:35:07.240Z,2.57
2018-08-18T14:37:38.132Z,2.67
2018-08-18T14:40:12.379Z,2.50
2018-08-18T14:42:41.829Z,2.70
2018-08-18T14:45:14.850Z,2.93
2018-08-18T14:47:44.406Z,2.70
2018-08-18T14:50:23.289Z,2.30
2018-08-18T14:52:52.962Z,3.10
2018-08-18T14:55:22.534Z,3.40
2018-08-18T14:57:56.916Z,2.87
2018-08-18T15:00:26.250Z,2.40
2018-08-18T15:02:55.820Z,2.80
2018-08-18T15:05:25.107Z,3.30
2018-08-18T15:07:56.419Z,3.00
2018-08-18T15:10:37.307Z,3.53
2018-08-18T15:13:07.233Z,3.20
2018-08-18T15:15:36.937Z,3.10
2018-08-18T15:18:08.348Z,3.70
2018-08-18T15:20:38.797Z,2.57
2018-08-18T15:23:09.294Z,2.50
2018-08-18T15:25:39.919Z,3.40
2018-08-18T15:28:11.173Z,3.00
2018-08-18T15:30:42.348Z,2.53
2018-08-18T15:33:12.521Z,2.90
2018-08-18T15:35:42.783Z,2.60
2018-08-18T15:38:12.538Z,3.00
2018-08-18T15:40:43.015Z,2.97
2018-08-18T15:43:12.410Z,3.50
2018-08-18T15:45:59.588Z,3.20
2018-08-18T15:48:28.870Z,3.07
2018-08-18T15:50:58.132Z,3.70
2018-08-18T15:53:53.046Z,3.47
2018-08-18T15:56:23.128Z,3.53
2018-08-18T15:58:53.677Z,3.07
2018-08-18T16:01:24.394Z,3.27
2018-08-18T16:03:55.071Z,3.17
2018-08-18T16:06:24.475Z,2.80
2018-08-18T16:08:54.280Z,3.17
2018-08-18T16:11:23.769Z,3.50
2018-08-18T16:13:53.171Z,3.30
2018-08-18T16:16:22.580Z,3.00
2018-08-18T16:19:00.710Z,3.23
2018-08-18T16:21:32.610Z,3.00
2018-08-18T16:24:02.124Z,3.53
2018-08-18T16:26:31.172Z,3.50
2018-08-18T16:29:00.456Z,3.40
2018-08-18T16:31:29.566Z,3.53
2018-08-18T16:33:58.589Z,3.40
2018-08-18T16:36:32.226Z,3.33
2018-08-18T16:39:01.621Z,2.73
2018-08-18T16:41:30.957Z,2.93
2018-08-18T16:43:59.956Z,3.00
2018-08-18T16:46:30.453Z,3.20
2018-08-18T16:48:59.626Z,3.40
2018-08-18T16:51:30.059Z,4.43
2018-08-18T16:54:13.540Z,3.40
2018-08-18T16:56:42.629Z,3.50
2018-08-18T16:59:11.732Z,3.60
2018-08-18T17:01:40.973Z,3.30
2018-08-18T17:04:12.239Z,3.40
2018-08-18T17:06:41.274Z,3.77
2018-08-18T17:09:10.434Z,3.20
2018-08-18T17:11:39.464Z,3.60
2018-08-18T17:14:12.737Z,3.10
2018-08-18T17:16:41.921Z,4.00
2018-08-18T17:19:11.004Z,3.60
2018-08-18T17:21:40.173Z,3.00
2018-08-18T17:24:09.276Z,3.57
2018-08-18T17:26:38.414Z,3.80
2018-08-18T17:29:07.443Z,4.13
2018-08-18T17:31:36.519Z,3.03
2018-08-18T17:34:05.650Z,4.00
2018-08-18T17:36:34.774Z,3.63
2018-08-18T17:39:04.052Z,4.60
2018-08-18T17:41:33.127Z,4.17
2018-08-18T17:44:02.197Z,3.47
2018-08-18T17:46:32.068Z,3.53
2018-08-18T17:49:01.385Z,4.10
2018-08-18T17:51:30.755Z,4.20
2018-08-18T17:54:00.146Z,3.27
2018-08-18T17:56:31.078Z,3.90
2018-08-18T17:59:00.491Z,3.67
2018-08-18T18:01:29.906Z,3.33
2018-08-18T18:03:59.697Z,4.13
2018-08-18T18:06:29.042Z,3.10
2018-08-18T18:08:58.434Z,3.43
2018-08-18T18:11:27.937Z,3.80
2018-08-18T18:13:57.049Z,3.67
2018-08-18T18:16:28.255Z,4.17
2018-08-18T18:18:59.078Z,4.23
2018-08-18T18:21:30.688Z,3.83
2018-08-18T18:23:59.995Z,3.80
2018-08-18T18:26:29.306Z,3.83
2018-08-18T18:28:58.431Z,4.17
2018-08-18T18:31:28.300Z,3.80
2018-08-18T18:34:04.940Z,4.00
2018-08-18T18:36:34.892Z,4.23
2018-08-18T18:39:04.981Z,4.10
2018-08-18T18:41:34.386Z,4.57
2018-08-18T18:44:04.366Z,4.10
2018-08-18T18:46:33.852Z,4.80
2018-08-18T18:49:08.932Z,4.57
2018-08-18T18:51:38.433Z,4.23
2018-08-18T18:54:07.972Z,4.33
2018-08-18T18:56:38.322Z,5.57
2018-08-18T18:59:07.750Z,4.03
2018-08-18T19:01:37.507Z,6.13
2018-08-18T19:04:08.009Z,4.67
2018-08-18T19:06:49.602Z,3.67
2018-08-18T19:09:19.404Z,4.33
2018-08-18T19:11:48.633Z,4.67
2018-08-18T19:14:17.817Z,6.00
2018-08-18T19:16:47.094Z,4.60
2018-08-18T19:19:16.225Z,3.90
2018-08-18T19:21:45.300Z,4.70
2018-08-18T19:24:26.991Z,3.93
2018-08-18T19:26:59.783Z,4.27
2018-08-18T19:29:29.847Z,4.73
2018-08-18T19:32:00.530Z,4.70
2018-08-18T19:34:30.477Z,3.97
2018-08-18T19:37:05.892Z,3.73
2018-08-18T19:39:36.163Z,4.20
2018-08-18T19:42:16.755Z,4.73
2018-08-18T19:44:48.229Z,5.23
2018-08-18T19:47:24.544Z,5.10
2018-08-18T19:49:54.129Z,4.20
2018-08-18T19:52:24.790Z,5.20
2018-08-18T19:54:53.874Z,4.97
2018-08-18T19:57:28.558Z,4.60
2018-08-18T20:00:05.447Z,4.97
2018-08-18T20:02:51.312Z,4.73
2018-08-18T20:05:22.446Z,4.83
2018-08-18T20:07:51.999Z,4.70
2018-08-18T20:10:21.196Z,4.13
2018-08-18T20:12:50.277Z,4.03
2018-08-18T20:15:19.414Z,4.53
2018-08-18T20:17:48.596Z,4.23
2018-08-18T20:20:22.440Z,4.70
2018-08-18T20:22:51.615Z,5.50
2018-08-18T20:25:21.843Z,4.73
2018-08-18T20:27:50.856Z,4.60
2018-08-18T20:30:20.109Z,4.63
2018-08-18T20:32:49.166Z,4.10
2018-08-18T20:35:18.316Z,4.73
2018-08-18T20:37:47.758Z,4.70
2018-08-18T20:40:17.071Z,5.20
2018-08-18T20:42:46.657Z,4.07
2018-08-18T20:45:16.237Z,4.93
2018-08-18T20:47:45.724Z,4.20
2018-08-18T20:50:15.281Z,4.97
2018-08-18T20:52:44.683Z,4.30
2018-08-18T20:55:14.130Z,4.70
2018-08-18T20:57:43.464Z,4.90
2018-08-18T21:00:13.464Z,5.23
2018-08-18T21:02:42.738Z,5.23
2018-08-18T21:05:12.973Z,4.97
2018-08-18T21:07:42.279Z,5.30
2018-08-18T21:10:12.783Z,5.10
2018-08-18T21:12:45.649Z,4.50
2018-08-18T21:15:15.672Z,4.07
2018-08-18T21:17:45.939Z,5.30
2018-08-18T21:20:17.943Z,5.20
2018-08-18T21:22:47.409Z,4.57
2018-08-18T21:25:16.898Z,4.90
2018-08-18T21:27:46.427Z,5.83
2018-08-18T21:30:18.098Z,4.37
2018-08-18T21:32:47.426Z,5.97
2018-08-18T21:35:17.776Z,4.70
2018-08-18T21:37:48.907Z,5.03
2018-08-18T21:40:18.251Z,4.60
2018-08-18T21:42:47.619Z,4.90
2018-08-18T21:45:17.008Z,5.00
2018-08-18T21:47:46.481Z,5.30
2018-08-18T21:50:15.849Z,5.00
2018-08-18T21:52:45.371Z,5.10
2018-08-18T21:55:14.903Z,5.00
2018-08-18T21:57:56.643Z,5.50
2018-08-18T22:00:31.400Z,5.60
2018-08-18T22:03:01.978Z,4.87
2018-08-18T22:05:33.149Z,4.80
2018-08-18T22:08:02.533Z,5.50
2018-08-18T22:10:32.038Z,4.50
2018-08-18T22:13:01.374Z,5.13
2018-08-18T22:15:32.837Z,5.50
2018-08-18T22:18:02.222Z,5.90
2018-08-18T22:20:31.576Z,5.10
2018-08-18T22:23:01.081Z,5.00
2018-08-18T22:25:30.420Z,4.20
2018-08-18T22:27:59.864Z,4.97
2018-08-18T22:30:29.199Z,5.27
2018-08-18T22:32:58.854Z,4.83
2018-08-18T22:35:28.132Z,6.70
2018-08-18T22:37:57.162Z,5.23
2018-08-18T22:40:26.328Z,5.70
2018-08-18T22:42:55.451Z,5.00
2018-08-18T22:45:28.135Z,5.20
2018-08-18T22:47:57.379Z,5.47
2018-08-18T22:50:26.468Z,4.83
2018-08-18T22:52:56.222Z,5.57
2018-08-18T22:55:25.361Z,4.73
2018-08-18T22:57:59.351Z,5.10
2018-08-18T23:00:28.432Z,5.00
2018-08-18T23:02:57.904Z,5.83
2018-08-18T23:05:27.625Z,5.60
2018-08-18T23:07:57.864Z,6.10
2018-08-18T23:10:32.134Z,6.60
2018-08-18T23:13:02.615Z,6.00
2018-08-18T23:15:32.042Z,6.17
2018-08-18T23:18:01.155Z,5.97
2018-08-18T23:20:30.311Z,5.70
2018-08-18T23:23:02.158Z,5.87
2018-08-18T23:25:32.554Z,5.93
2018-08-18T23:28:02.310Z,6.30
2018-08-18T23:30:39.512Z,5.07
2018-08-18T23:33:10.326Z,6.10
2018-08-18T23:35:39.728Z,6.27
2018-08-18T23:38:09.253Z,5.40
2018-08-18T23:40:38.756Z,5.77
2018-08-18T23:43:08.039Z,5.53
2018-08-18T23:45:42.690Z,5.23
2018-08-18T23:48:14.049Z,5.67
2018-08-18T23:50:44.596Z,5.50
2018-08-18T23:53:16.678Z,4.63
2018-08-18T23:56:00.601Z,5.87
2018-08-18T23:58:30.654Z,6.70
